Time,TemperatureF,DewpointF,PressureIn,WindDirection,WindDirectionDegrees,WindSpeedMPH,WindSpeedGustMPH,Humidity,HourlyPrecipIn,Conditions,Clouds,dailyrainin,SolarRadiationWatts/m^2,SoftwareType,DateUTC
2013-09-21 00:23:00,71.0,70.0,-100.00,NNE,16,3.0,7.0,96,0.00,,,3.65,0.000000,,2013-09-21 05:23:00,
2013-09-21 00:34:00,71.0,70.0,-100.00,NNE,16,3.0,7.0,96,0.00,,,3.65,0.000000,,2013-09-21 05:34:00,
2013-09-21 00:44:00,71.0,70.0,-100.00,NNE,16,3.0,7.0,96,0.00,,,3.65,0.000000,,2013-09-21 05:44:00,
2013-09-21 00:53:00,71.0,70.0,-100.00,NNE,16,3.0,7.0,96,0.00,,,3.65,0.000000,,2013-09-21 05:53:00,
2013-09-21 01:02:00,71.0,70.0,-100.00,NNE,16,3.0,7.0,96,0.00,,,3.65,0.000000,,2013-09-21 06:02:00,
2013-09-21 01:42:00,70.0,69.0,-100.00,NNE,15,4.0,7.0,96,0.00,,,3.65,0.000000,,2013-09-21 06:42:00,
2013-09-21 01:53:00,70.0,69.0,-100.00,NNE,15,4.0,7.0,96,0.00,,,3.65,0.000000,,2013-09-21 06:53:00,
2013-09-21 02:01:00,70.0,69.0,-100.00,NNE,15,4.0,7.0,96,0.00,,,3.65,0.000000,,2013-09-21 07:01:00,
2013-09-21 02:03:00,71.0,69.0,-100.00,NNE,22,6.0,10.0,95,0.00,,,3.65,0.000000,,2013-09-21 07:03:00,
2013-09-21 02:22:00,71.0,69.0,-100.00,NNE,22,6.0,10.0,95,0.00,,,3.65,0.000000,,2013-09-21 07:22:00,
2013-09-21 02:32:00,71.0,69.0,-100.00,NNE,22,6.0,10.0,95,0.00,,,3.65,0.000000,,2013-09-21 07:32:00,
2013-09-21 02:42:00,71.0,69.0,-100.00,NNE,22,6.0,10.0,95,0.00,,,3.65,0.000000,,2013-09-21 07:42:00,
2013-09-21 02:52:00,71.0,69.0,-100.00,NNE,22,6.0,10.0,95,0.00,,,3.65,0.000000,,2013-09-21 07:52:00,
2013-09-21 03:22:00,70.0,68.0,-100.00,NNE,28,5.0,11.0,95,0.00,,,3.64,0.000000,,2013-09-21 08:22:00,
2013-09-21 03:32:00,70.0,68.0,-100.00,NNE,28,5.0,11.0,95,0.00,,,3.64,0.000000,,2013-09-21 08:32:00,
2013-09-21 03:42:00,70.0,68.0,-100.00,NNE,28,5.0,11.0,95,0.00,,,3.64,0.000000,,2013-09-21 08:42:00,
2013-09-21 03:52:00,70.0,68.0,-100.00,NNE,28,5.0,11.0,95,0.00,,,3.64,0.000000,,2013-09-21 08:52:00,
2013-09-21 04:02:00,70.0,68.0,-100.00,NNE,28,5.0,11.0,95,0.00,,,3.64,0.000000,,2013-09-21 09:02:00,
2013-09-21 04:03:00,70.0,68.0,-100.00,NNE,29,5.0,11.0,94,0.00,,,3.64,0.000000,,2013-09-21 09:03:00,
2013-09-21 04:43:00,70.0,68.0,-100.00,NNE,29,5.0,11.0,94,0.00,,,3.64,0.000000,,2013-09-21 09:43:00,
2013-09-21 04:54:00,70.0,68.0,-100.00,NNE,29,5.0,11.0,94,0.00,,,3.64,0.000000,,2013-09-21 09:54:00,
2013-09-21 05:03:00,70.0,68.0,-100.00,NNE,14,5.0,10.0,93,0.00,,,3.63,0.000000,,2013-09-21 10:03:00,
2013-09-21 05:42:00,70.0,68.0,-100.00,NNE,14,5.0,10.0,93,0.00,,,3.63,0.000000,,2013-09-21 10:42:00,
2013-09-21 05:52:00,70.0,68.0,-100.00,NNE,14,5.0,10.0,93,0.00,,,3.63,0.000000,,2013-09-21 10:52:00,
2013-09-21 06:23:00,70.0,68.0,-100.00,North,10,6.0,12.0,94,0.00,,,3.62,0.000000,,2013-09-21 11:23:00,
2013-09-21 06:33:00,70.0,68.0,-100.00,North,10,6.0,12.0,94,0.00,,,3.62,0.000000,,2013-09-21 11:33:00,
2013-09-21 06:42:00,70.0,68.0,-100.00,North,10,6.0,12.0,94,0.00,,,3.62,0.000000,,2013-09-21 11:42:00,
2013-09-21 06:52:00,70.0,68.0,-100.00,North,10,6.0,12.0,94,0.00,,,3.62,0.000000,,2013-09-21 11:52:00,
2013-09-21 07:02:00,70.0,68.0,-100.00,North,10,6.0,12.0,94,0.00,,,3.62,0.000000,,2013-09-21 12:02:00,
2013-09-21 07:42:00,70.0,68.0,-100.00,NNE,19,8.0,14.0,95,0.01,,,3.63,0.000000,,2013-09-21 12:42:00,
2013-09-21 07:52:00,70.0,68.0,-100.00,NNE,19,8.0,14.0,95,0.01,,,3.63,0.000000,,2013-09-21 12:52:00,
2013-09-21 08:02:00,70.0,68.0,-100.00,NNE,19,8.0,14.0,95,0.01,,,3.63,0.000000,,2013-09-21 13:02:00,
2013-09-21 08:22:00,70.0,67.0,-100.00,NNE,21,6.0,13.0,91,0.00,,,3.63,14.000000,,2013-09-21 13:22:00,
2013-09-21 08:32:00,70.0,67.0,-100.00,NNE,21,6.0,13.0,91,0.00,,,3.63,14.000000,,2013-09-21 13:32:00,
2013-09-21 08:42:00,70.0,67.0,-100.00,NNE,21,6.0,13.0,91,0.00,,,3.63,14.000000,,2013-09-21 13:42:00,
2013-09-21 08:52:00,70.0,67.0,-100.00,NNE,21,6.0,13.0,91,0.00,,,3.63,14.000000,,2013-09-21 13:52:00,
2013-09-21 09:02:00,70.0,67.0,-100.00,NNE,21,6.0,13.0,91,0.00,,,3.63,14.000000,,2013-09-21 14:02:00,
2013-09-21 09:22:00,70.0,66.0,-100.00,NNE,28,10.0,16.0,88,0.00,,,3.63,35.000000,,2013-09-21 14:22:00,
2013-09-21 09:32:00,70.0,66.0,-100.00,NNE,28,10.0,16.0,88,0.00,,,3.63,35.000000,,2013-09-21 14:32:00,
2013-09-21 09:42:00,70.0,66.0,-100.00,NNE,28,10.0,16.0,88,0.00,,,3.63,35.000000,,2013-09-21 14:42:00,
2013-09-21 09:52:00,70.0,66.0,-100.00,NNE,28,10.0,16.0,88,0.00,,,3.63,35.000000,,2013-09-21 14:52:00,
2013-09-21 10:01:00,70.0,66.0,-100.00,NNE,28,10.0,16.0,88,0.00,,,3.63,35.000000,,2013-09-21 15:01:00,
2013-09-21 10:03:00,72.0,65.0,-100.00,NNE,31,10.0,16.0,80,0.00,,,3.52,183.000000,,2013-09-21 15:03:00,
2013-09-21 10:45:00,72.0,65.0,-100.00,NNE,31,10.0,16.0,80,0.00,,,3.52,183.000000,,2013-09-21 15:45:00,
2013-09-21 10:55:00,72.0,65.0,-100.00,NNE,31,10.0,16.0,80,0.00,,,3.52,183.000000,,2013-09-21 15:55:00,
2013-09-21 11:03:00,74.0,67.0,-100.00,NNE,31,8.0,16.0,78,0.00,,,3.47,242.000000,,2013-09-21 16:03:00,
2013-09-21 11:24:00,74.0,67.0,-100.00,NNE,31,8.0,16.0,78,0.00,,,3.47,242.000000,,2013-09-21 16:24:00,
2013-09-21 11:34:00,74.0,67.0,-100.00,NNE,31,8.0,16.0,78,0.00,,,3.47,242.000000,,2013-09-21 16:34:00,
2013-09-21 11:43:00,74.0,67.0,-100.00,NNE,31,8.0,16.0,78,0.00,,,3.47,242.000000,,2013-09-21 16:43:00,
2013-09-21 11:54:00,74.0,67.0,-100.00,NNE,31,8.0,16.0,78,0.00,,,3.47,242.000000,,2013-09-21 16:54:00,
2013-09-21 12:43:00,75.0,65.0,-100.00,NNE,24,8.0,20.0,72,0.00,,,3.39,394.000000,,2013-09-21 17:43:00,
2013-09-21 12:52:00,75.0,65.0,-100.00,NNE,24,8.0,20.0,72,0.00,,,3.39,394.000000,,2013-09-21 17:52:00,
2013-09-21 13:02:00,75.0,65.0,-100.00,NNE,24,8.0,20.0,72,0.00,,,3.39,394.000000,,2013-09-21 18:02:00,
2013-09-21 13:22:00,78.0,63.0,-100.00,North,9,9.0,16.0,61,0.00,,,3.36,693.000000,,2013-09-21 18:22:00,
2013-09-21 13:32:00,78.0,63.0,-100.00,North,9,9.0,16.0,61,0.00,,,3.36,693.000000,,2013-09-21 18:32:00,
2013-09-21 13:42:00,78.0,63.0,-100.00,North,9,9.0,16.0,61,0.00,,,3.36,693.000000,,2013-09-21 18:42:00,
2013-09-21 13:52:00,78.0,63.0,-100.00,North,9,9.0,16.0,61,0.00,,,3.36,693.000000,,2013-09-21 18:52:00,
2013-09-21 14:02:00,78.0,63.0,-100.00,North,9,9.0,16.0,61,0.00,,,3.36,693.000000,,2013-09-21 19:02:00,
2013-09-21 14:42:00,83.0,66.0,-100.00,NE,41,8.0,17.0,56,0.00,,,3.22,810.000000,,2013-09-21 19:42:00,
2013-09-21 14:52:00,83.0,66.0,-100.00,NE,41,8.0,17.0,56,0.00,,,3.22,810.000000,,2013-09-21 19:52:00,
2013-09-21 15:02:00,83.0,66.0,-100.00,NE,41,8.0,17.0,56,0.00,,,3.22,810.000000,,2013-09-21 20:02:00,
2013-09-21 15:22:00,83.0,63.0,-100.00,NE,34,9.0,17.0,51,0.00,,,3.04,645.000000,,2013-09-21 20:22:00,
2013-09-21 15:32:00,83.0,63.0,-100.00,NE,34,9.0,17.0,51,0.00,,,3.04,645.000000,,2013-09-21 20:32:00,
2013-09-21 15:43:00,83.0,63.0,-100.00,NE,34,9.0,17.0,51,0.00,,,3.04,645.000000,,2013-09-21 20:43:00,
2013-09-21 15:52:00,83.0,63.0,-100.00,NE,34,9.0,17.0,51,0.00,,,3.04,645.000000,,2013-09-21 20:52:00,
2013-09-21 16:02:00,83.0,63.0,-100.00,NE,34,9.0,17.0,51,0.00,,,3.04,645.000000,,2013-09-21 21:02:00,
2013-09-21 16:03:00,83.0,64.0,-100.00,NNE,26,7.0,15.0,52,0.00,,,2.52,536.000000,,2013-09-21 21:03:00,
2013-09-21 16:22:00,83.0,64.0,-100.00,NNE,26,7.0,15.0,52,0.00,,,2.52,536.000000,,2013-09-21 21:22:00,
2013-09-21 16:34:00,83.0,64.0,-100.00,NNE,26,7.0,15.0,52,0.00,,,2.52,536.000000,,2013-09-21 21:34:00,
2013-09-21 16:45:00,83.0,64.0,-100.00,NNE,26,7.0,15.0,52,0.00,,,2.52,536.000000,,2013-09-21 21:45:00,
2013-09-21 16:54:00,83.0,64.0,-100.00,NNE,26,7.0,15.0,52,0.00,,,2.52,536.000000,,2013-09-21 21:54:00,
2013-09-21 17:03:00,83.0,63.0,-100.00,NNE,25,8.0,16.0,51,0.00,,,1.54,446.000000,,2013-09-21 22:03:00,
2013-09-21 17:24:00,83.0,63.0,-100.00,NNE,25,8.0,16.0,51,0.00,,,1.54,446.000000,,2013-09-21 22:24:00,
2013-09-21 17:33:00,83.0,63.0,-100.00,NNE,25,8.0,16.0,51,0.00,,,1.54,446.000000,,2013-09-21 22:33:00,
2013-09-21 17:43:00,83.0,63.0,-100.00,NNE,25,8.0,16.0,51,0.00,,,1.54,446.000000,,2013-09-21 22:43:00,
2013-09-21 17:53:00,83.0,63.0,-100.00,NNE,25,8.0,16.0,51,0.00,,,1.54,446.000000,,2013-09-21 22:53:00,
2013-09-21 18:42:00,83.0,64.0,-100.00,NE,39,6.0,13.0,52,0.00,,,0.80,333.000000,,2013-09-21 23:42:00,
2013-09-21 18:53:00,83.0,64.0,-100.00,NE,39,6.0,13.0,52,0.00,,,0.80,333.000000,,2013-09-21 23:53:00,
2013-09-21 19:02:00,83.0,64.0,-100.00,NE,39,6.0,13.0,52,0.00,,,0.80,333.000000,,2013-09-22 00:02:00,
2013-09-21 19:23:00,79.0,61.0,-100.00,NNE,32,5.0,10.0,55,0.00,,,0.40,88.000000,,2013-09-22 00:23:00,
2013-09-21 19:32:00,79.0,61.0,-100.00,NNE,32,5.0,10.0,55,0.00,,,0.40,88.000000,,2013-09-22 00:32:00,
2013-09-21 19:43:00,79.0,61.0,-100.00,NNE,32,5.0,10.0,55,0.00,,,0.40,88.000000,,2013-09-22 00:43:00,
2013-09-21 19:52:00,79.0,61.0,-100.00,NNE,32,5.0,10.0,55,0.00,,,0.40,88.000000,,2013-09-22 00:52:00,
2013-09-21 20:02:00,79.0,61.0,-100.00,NNE,32,5.0,10.0,55,0.00,,,0.40,88.000000,,2013-09-22 01:02:00,
2013-09-21 20:42:00,77.0,63.0,-100.00,NNE,14,3.0,5.0,62,0.00,,,0.12,3.000000,,2013-09-22 01:42:00,
2013-09-21 20:52:00,77.0,63.0,-100.00,NNE,14,3.0,5.0,62,0.00,,,0.12,3.000000,,2013-09-22 01:52:00,
2013-09-21 21:02:00,77.0,63.0,-100.00,NNE,14,3.0,5.0,62,0.00,,,0.12,3.000000,,2013-09-22 02:02:00,
2013-09-21 21:42:00,74.0,60.0,-100.00,North,357,3.0,7.0,62,0.00,,,0.02,0.000000,,2013-09-22 02:42:00,
2013-09-21 21:52:00,74.0,60.0,-100.00,North,357,3.0,7.0,62,0.00,,,0.02,0.000000,,2013-09-22 02:52:00,
2013-09-21 22:02:00,74.0,60.0,-100.00,North,357,3.0,7.0,62,0.00,,,0.02,0.000000,,2013-09-22 03:02:00,
2013-09-21 22:22:00,71.0,58.0,-100.00,NE,36,4.0,6.0,63,0.00,,,0.02,0.000000,,2013-09-22 03:22:00,
2013-09-21 22:34:00,71.0,58.0,-100.00,NE,36,4.0,6.0,63,0.00,,,0.02,0.000000,,2013-09-22 03:34:00,
2013-09-21 22:45:00,71.0,58.0,-100.00,NE,36,4.0,6.0,63,0.00,,,0.02,0.000000,,2013-09-22 03:45:00,
2013-09-21 22:54:00,71.0,58.0,-100.00,NE,36,4.0,6.0,63,0.00,,,0.02,0.000000,,2013-09-22 03:54:00,
2013-09-21 23:02:00,-999.0,-99.9,-100.00,NE,36,4.0,6.0,-999,-99.99,,,-99.99,0.000000,,2013-09-22 04:02:00,
2013-09-21 23:03:00,69.0,56.0,-100.00,NNE,29,4.0,7.0,64,0.00,,,0.01,0.000000,,2013-09-22 04:03:00,
2013-09-21 23:24:00,69.0,56.0,-100.00,NNE,29,4.0,7.0,64,0.00,,,0.01,0.000000,,2013-09-22 04:24:00,
2013-09-21 23:33:00,69.0,56.0,-100.00,NNE,29,4.0,7.0,64,0.00,,,0.01,0.000000,,2013-09-22 04:33:00,
2013-09-21 23:44:00,69.0,56.0,-100.00,NNE,29,4.0,7.0,64,0.00,,,0.01,0.000000,,2013-09-22 04:44:00,
2013-09-21 23:54:00,69.0,56.0,-100.00,NNE,29,4.0,7.0,64,0.00,,,0.01,0.000000,,2013-09-22 04:54:00,